createdAt,value
2017-08-20T00:03:10.283Z,0
2017-08-20T00:13:25.706Z,0
2017-08-20T00:23:41.102Z,0
2017-08-20T00:33:55.942Z,0
2017-08-20T00:44:10.923Z,0
2017-08-20T00:54:26.542Z,0
2017-08-20T01:04:40.651Z,0
2017-08-20T01:14:55.336Z,0
2017-08-20T01:25:09.205Z,0
2017-08-20T01:35:24.498Z,0
2017-08-20T01:45:38.687Z,0
2017-08-20T01:55:53.094Z,0
2017-08-20T02:06:07.432Z,0
2017-08-20T02:16:22.348Z,0
2017-08-20T02:26:38.013Z,0
2017-08-20T02:36:52.304Z,0
2017-08-20T02:47:07.500Z,0
2017-08-20T02:57:22.554Z,0
2017-08-20T03:07:37.313Z,0
2017-08-20T03:17:51.060Z,0
2017-08-20T03:28:05.404Z,0
2017-08-20T03:38:19.318Z,0
2017-08-20T03:48:33.469Z,4
2017-08-20T03:58:47.316Z,12
2017-08-20T04:09:01.700Z,68
2017-08-20T04:19:16.505Z,188
2017-08-20T04:29:31.969Z,416
2017-08-20T04:39:47.378Z,1008
2017-08-20T04:50:02.150Z,1628
2017-08-20T05:00:16.722Z,2376
2017-08-20T05:10:30.783Z,3608
2017-08-20T05:20:45.468Z,4852
2017-08-20T05:31:00.188Z,6632
2017-08-20T05:41:14.251Z,5736
2017-08-20T05:51:28.895Z,7440
2017-08-20T06:01:42.820Z,9240
2017-08-20T06:11:56.927Z,12528
2017-08-20T06:22:11.889Z,10592
2017-08-20T06:32:25.854Z,11416
2017-08-20T06:42:40.187Z,12772
2017-08-20T06:52:54.004Z,13680
2017-08-20T07:03:09.692Z,12252
2017-08-20T07:13:24.170Z,13348
2017-08-20T07:23:38.970Z,20096
2017-08-20T07:33:54.440Z,38880
2017-08-20T07:44:09.019Z,33600
2017-08-20T07:54:22.897Z,33696
2017-08-20T08:04:37.209Z,18400
2017-08-20T08:14:52.160Z,45984
2017-08-20T08:25:07.999Z,34176
2017-08-20T08:35:22.832Z,52768
2017-08-20T08:45:38.099Z,37792
2017-08-20T08:55:52.771Z,25920
2017-08-20T09:06:06.664Z,72000
2017-08-20T09:16:20.890Z,68544
2017-08-20T09:26:34.783Z,74624
2017-08-20T09:36:49.860Z,20736
2017-08-20T09:47:05.019Z,25216
2017-08-20T09:57:18.906Z,39232
2017-08-20T10:07:33.743Z,96608
2017-08-20T10:17:48.849Z,28928
2017-08-20T10:28:03.430Z,20096
2017-08-20T10:38:18.362Z,32352
2017-08-20T10:48:32.477Z,23040
2017-08-20T10:58:47.757Z,32608
2017-08-20T11:09:02.802Z,47712
2017-08-20T11:19:16.866Z,64512
2017-08-20T11:29:30.819Z,20768
2017-08-20T11:39:45.978Z,31392
2017-08-20T11:50:01.351Z,75936
2017-08-20T12:00:17.009Z,100544
2017-08-20T12:10:31.937Z,45376
2017-08-20T12:20:46.436Z,43808
2017-08-20T12:31:01.175Z,18112
2017-08-20T12:41:15.510Z,38400
2017-08-20T12:51:30.074Z,79616
2017-08-20T13:01:44.059Z,34240
2017-08-20T13:11:58.911Z,29664
2017-08-20T13:22:13.785Z,42912
2017-08-20T13:32:29.481Z,41152
2017-08-20T13:42:43.467Z,38368
2017-08-20T13:52:59.055Z,83616
2017-08-20T14:03:14.081Z,13680
2017-08-20T14:13:29.674Z,12088
2017-08-20T14:23:45.396Z,23968
2017-08-20T14:33:59.698Z,51392
2017-08-20T14:44:13.661Z,20160
2017-08-20T14:54:28.446Z,16448
2017-08-20T15:04:42.975Z,3740
2017-08-20T15:14:57.318Z,10284
2017-08-20T15:25:12.631Z,9944
2017-08-20T15:35:26.689Z,25184
2017-08-20T15:45:42.203Z,21344
2017-08-20T15:55:57.168Z,14868
2017-08-20T16:06:11.388Z,19296
2017-08-20T16:16:25.748Z,15992
2017-08-20T16:26:40.110Z,12960
2017-08-20T16:36:54.870Z,17728
2017-08-20T16:47:09.751Z,13104
2017-08-20T16:57:25.118Z,10960
2017-08-20T17:07:39.160Z,11328
2017-08-20T17:17:53.071Z,11012
2017-08-20T17:28:08.445Z,9624
2017-08-20T17:38:23.918Z,6664
2017-08-20T17:48:37.833Z,3640
2017-08-20T17:58:53.559Z,2484
2017-08-20T18:09:08.312Z,2236
2017-08-20T18:19:22.960Z,984
2017-08-20T18:29:38.119Z,480
2017-08-20T18:39:53.352Z,220
2017-08-20T18:50:08.753Z,108
2017-08-20T19:00:23.171Z,36
2017-08-20T19:10:38.697Z,8
2017-08-20T19:20:52.485Z,0
2017-08-20T19:31:07.241Z,0
2017-08-20T19:41:21.667Z,0
2017-08-20T19:51:37.002Z,0
2017-08-20T20:01:52.465Z,0
2017-08-20T20:12:07.190Z,0
2017-08-20T20:22:21.806Z,0
2017-08-20T20:32:36.799Z,0
2017-08-20T20:42:50.767Z,0
2017-08-20T20:53:05.105Z,0
2017-08-20T21:03:20.042Z,0
2017-08-20T21:13:34.147Z,0
2017-08-20T21:23:49.757Z,0
2017-08-20T21:34:05.217Z,0
2017-08-20T21:44:19.346Z,0
2017-08-20T21:54:33.810Z,0
2017-08-20T22:04:48.557Z,0
2017-08-20T22:15:04.024Z,0
2017-08-20T22:25:18.744Z,0
2017-08-20T22:35:32.592Z,0
2017-08-20T22:45:46.961Z,0
2017-08-20T22:56:02.422Z,0
2017-08-20T23:06:16.390Z,0
2017-08-20T23:16:31.560Z,0
2017-08-20T23:26:46.887Z,0
2017-08-20T23:37:01.322Z,0
2017-08-20T23:47:16.794Z,0
2017-08-20T23:57:31.354Z,0
